Time;durP1;ratioP1;P1;durP2;ratioP2;P2;SDS_P1;SDS_P2;PMS_P1;PMS_P2;Temp;Humidity;BMP_temperature;BMP_pressure;BME280_temperature;BME280_humidity;BME280_pressure;Samples;Min_cycle;Max_cycle;Signal;HPM_P1;HPM_P2
2023/07/22 00:00:39;;;;;;;8.10;3.40;;;;;;;11.97;100.00;93980.03;4932613;29;20057;-63
2023/07/22 00:03:06;;;;;;;4.63;2.92;;;;;;;11.98;100.00;93985.13;4934343;29;20474;-61
2023/07/22 00:05:33;;;;;;;4.37;2.50;;;;;;;11.96;100.00;93976.50;4934505;29;20044;-61
2023/07/22 00:08:00;;;;;;;5.50;2.65;;;;;;;11.96;100.00;93981.25;4934644;29;20055;-61
2023/07/22 00:10:27;;;;;;;4.90;2.78;;;;;;;11.93;100.00;93982.06;4933973;29;20077;-63
2023/07/22 00:12:54;;;;;;;6.45;2.70;;;;;;;11.86;100.00;93977.47;4934575;29;20058;-62
2023/07/22 00:15:22;;;;;;;7.70;3.08;;;;;;;11.85;100.00;93978.69;4926515;29;20401;-64
2023/07/22 00:17:50;;;;;;;4.97;2.67;;;;;;;11.85;100.00;93984.19;4929180;29;20044;-62
2023/07/22 00:20:18;;;;;;;22.27;14.07;;;;;;;11.71;100.00;93978.94;4922543;29;20072;-61
2023/07/22 00:22:44;;;;;;;45.88;25.60;;;;;;;11.70;100.00;93985.63;4932027;29;20050;-61
2023/07/22 00:25:12;;;;;;;8.52;5.55;;;;;;;11.72;100.00;93980.50;4936946;29;20062;-61
2023/07/22 00:27:40;;;;;;;7.00;3.00;;;;;;;11.66;100.00;93974.69;4940471;29;20070;-62
2023/07/22 00:30:07;;;;;;;4.63;3.00;;;;;;;11.68;100.00;93969.56;4941508;29;20421;-65
2023/07/22 00:32:36;;;;;;;5.35;2.80;;;;;;;11.71;100.00;93976.97;4942089;29;20051;-64
2023/07/22 00:35:05;;;;;;;4.68;2.47;;;;;;;11.62;100.00;93974.00;4941327;29;20448;-63
2023/07/22 00:37:32;;;;;;;5.03;2.60;;;;;;;11.63;100.00;93975.56;4928728;29;20534;-61
2023/07/22 00:40:01;;;;;;;5.53;3.10;;;;;;;11.64;100.00;93968.09;4937737;29;20268;-61
2023/07/22 00:42:28;;;;;;;6.47;3.70;;;;;;;11.67;100.00;93973.53;4941015;29;20402;-64
2023/07/22 00:44:54;;;;;;;9.93;5.13;;;;;;;11.73;100.00;93963.59;4941740;28;20091;-61
2023/07/22 00:47:22;;;;;;;6.38;3.33;;;;;;;11.77;100.00;93969.00;4941154;28;20389;-60
2023/07/22 00:49:51;;;;;;;5.55;3.05;;;;;;;11.82;100.00;93963.03;4939711;29;20535;-60
2023/07/22 00:52:17;;;;;;;5.05;2.90;;;;;;;11.84;100.00;93960.63;4936257;29;20339;-60
2023/07/22 00:54:44;;;;;;;6.80;2.70;;;;;;;11.85;100.00;93958.63;4939230;29;20151;-61
2023/07/22 00:57:11;;;;;;;5.30;2.60;;;;;;;11.83;100.00;93952.78;4941028;29;20449;-60
2023/07/22 00:59:40;;;;;;;5.55;2.40;;;;;;;11.81;100.00;93950.44;4941548;28;20075;-61
2023/07/22 01:02:07;;;;;;;4.43;2.70;;;;;;;11.82;100.00;93949.28;4939894;29;20057;-61
2023/07/22 01:04:35;;;;;;;4.47;2.50;;;;;;;11.82;100.00;93952.03;4933653;29;20445;-63
2023/07/22 01:07:07;;;;;;;7.03;2.90;;;;;;;11.78;100.00;93956.81;4941280;28;20106;-62
2023/07/22 01:09:35;;;;;;;7.45;2.78;;;;;;;11.78;100.00;93957.59;4936395;29;20186;-60
2023/07/22 01:12:03;;;;;;;4.78;2.83;;;;;;;11.82;100.00;93952.03;4936528;29;20122;-64
2023/07/22 01:14:29;;;;;;;5.57;2.67;;;;;;;11.86;100.00;93944.47;4927635;29;20800;-60
2023/07/22 01:16:56;;;;;;;5.18;2.90;;;;;;;11.86;100.00;93936.22;4952193;29;20047;-61
2023/07/22 01:19:23;;;;;;;5.47;2.83;;;;;;;11.87;100.00;93940.53;4917566;29;20055;-61
2023/07/22 01:21:51;;;;;;;5.13;2.70;;;;;;;11.76;100.00;93948.97;4907827;29;20056;-60
2023/07/22 01:24:17;;;;;;;5.40;2.92;;;;;;;11.83;100.00;93941.78;4943466;29;20048;-60
2023/07/22 01:26:44;;;;;;;6.13;2.95;;;;;;;11.78;100.00;93943.06;4948414;29;20293;-63
2023/07/22 01:29:11;;;;;;;5.60;2.70;;;;;;;11.85;100.00;93934.69;4935643;29;20052;-61
2023/07/22 01:31:38;;;;;;;4.83;2.97;;;;;;;11.91;100.00;93938.53;4939635;29;20390;-61
2023/07/22 01:34:05;;;;;;;5.18;3.17;;;;;;;11.74;100.00;93926.63;4940250;29;20044;-61
2023/07/22 01:36:32;;;;;;;6.63;3.20;;;;;;;11.80;100.00;93933.19;4940716;29;20048;-61
2023/07/22 01:39:00;;;;;;;5.13;3.33;;;;;;;11.89;100.00;93932.66;4940206;28;20043;-61
2023/07/22 01:41:27;;;;;;;6.03;3.28;;;;;;;11.88;100.00;93928.31;4943260;29;20039;-61
2023/07/22 01:43:54;;;;;;;4.93;2.80;;;;;;;11.88;100.00;93939.31;4950446;28;20694;-61
2023/07/22 01:46:21;;;;;;;9.57;2.85;;;;;;;11.93;100.00;93938.88;4935528;29;20044;-61
2023/07/22 01:48:48;;;;;;;7.18;3.35;;;;;;;11.94;100.00;93925.91;4950405;28;20040;-64
2023/07/22 01:51:15;;;;;;;6.03;3.20;;;;;;;11.95;100.00;93927.44;4935477;29;20059;-61
2023/07/22 01:53:41;;;;;;;5.80;2.88;;;;;;;11.91;100.00;93933.03;4937511;29;20056;-61
2023/07/22 01:56:08;;;;;;;5.50;2.90;;;;;;;11.89;100.00;93929.91;4932562;29;20062;-61
2023/07/22 01:58:35;;;;;;;4.43;2.60;;;;;;;11.87;100.00;93935.03;4939671;28;20044;-62
2023/07/22 02:01:02;;;;;;;5.18;2.70;;;;;;;11.80;100.00;93940.66;4940429;29;20353;-62
2023/07/22 02:03:29;;;;;;;5.40;2.50;;;;;;;11.80;100.00;93946.94;4934900;29;21723;-63
2023/07/22 02:06:05;;;;;;;4.97;2.80;;;;;;;11.78;100.00;93945.81;4936485;29;20070;-61
2023/07/22 02:08:32;;;;;;;5.27;3.07;;;;;;;11.68;100.00;93941.31;4930735;29;21482;-61
2023/07/22 02:11:04;;;;;;;5.47;2.80;;;;;;;11.69;100.00;93938.13;4943981;29;20128;-61
2023/07/22 02:13:31;;;;;;;5.47;2.70;;;;;;;11.63;100.00;93947.28;4935738;29;20066;-62
2023/07/22 02:15:59;;;;;;;5.05;2.97;;;;;;;11.64;100.00;93941.34;4931874;29;20519;-61
2023/07/22 02:18:26;;;;;;;5.32;3.17;;;;;;;11.61;100.00;93950.47;4924039;29;20040;-61
2023/07/22 02:20:54;;;;;;;5.60;2.87;;;;;;;11.48;100.00;93953.03;4913278;29;20505;-62
2023/07/22 02:23:21;;;;;;;6.20;3.08;;;;;;;11.39;100.00;93959.09;4925842;29;20055;-64
2023/07/22 02:25:49;;;;;;;5.50;3.10;;;;;;;11.36;100.00;93953.66;4931824;29;20044;-64
2023/07/22 02:28:22;;;;;;;7.10;2.97;;;;;;;11.36;100.00;93961.91;4931622;29;20409;-61
2023/07/22 02:30:52;;;;;;;5.85;3.33;;;;;;;11.36;100.00;93959.91;4932154;29;20040;-61
2023/07/22 02:33:20;;;;;;;6.20;2.80;;;;;;;11.34;100.00;93956.81;4931359;29;20056;-62
2023/07/22 02:35:47;;;;;;;6.68;2.90;;;;;;;11.34;100.00;93956.03;4934527;29;20043;-60
2023/07/22 02:38:14;;;;;;;7.88;3.22;;;;;;;11.33;100.00;93947.03;4937045;29;20057;-62
2023/07/22 02:40:41;;;;;;;5.70;3.17;;;;;;;11.24;100.00;93941.28;4929228;29;20073;-62
2023/07/22 02:43:08;;;;;;;7.43;3.08;;;;;;;11.16;100.00;93937.13;4941762;28;20048;-62
2023/07/22 02:45:36;;;;;;;5.10;3.00;;;;;;;11.14;100.00;93931.28;4938536;29;20035;-64
2023/07/22 02:48:04;;;;;;;5.40;2.88;;;;;;;11.10;100.00;93928.59;4939007;29;20586;-65
2023/07/22 02:50:31;;;;;;;5.63;3.40;;;;;;;10.97;100.00;93931.16;4935394;29;20047;-64
2023/07/22 02:52:58;;;;;;;7.68;2.95;;;;;;;10.91;100.00;93937.56;4935745;29;20074;-61
2023/07/22 02:55:24;;;;;;;5.22;2.90;;;;;;;10.92;100.00;93947.31;4939234;29;20050;-60
2023/07/22 02:57:51;;;;;;;7.20;2.73;;;;;;;10.89;100.00;93940.72;4939512;29;20615;-61
2023/07/22 03:00:23;;;;;;;4.85;2.83;;;;;;;10.86;100.00;93947.03;4938815;29;20055;-62
2023/07/22 03:03:05;;;;;;;6.00;2.85;;;;;;;10.83;100.00;93930.63;4937874;29;20501;-61
2023/07/22 03:05:32;;;;;;;7.30;3.05;;;;;;;10.79;100.00;93931.44;4946799;29;20467;-63
2023/07/22 03:07:59;;;;;;;4.70;2.90;;;;;;;10.71;100.00;93932.75;4934619;29;20051;-61
2023/07/22 03:10:26;;;;;;;4.90;3.10;;;;;;;10.64;100.00;93938.34;4931224;29;20047;-64
2023/07/22 03:12:55;;;;;;;5.47;3.00;;;;;;;10.65;100.00;93939.13;4931443;29;20051;-61
2023/07/22 03:15:23;;;;;;;5.03;3.30;;;;;;;10.54;100.00;93939.28;4938759;29;20098;-61
2023/07/22 03:17:49;;;;;;;5.15;2.72;;;;;;;10.48;100.00;93940.94;4940027;28;20066;-61
2023/07/22 03:20:18;;;;;;;5.60;2.92;;;;;;;10.39;100.00;93944.97;4920999;29;20362;-61
2023/07/22 03:22:45;;;;;;;7.30;3.13;;;;;;;10.33;100.00;93952.13;4928988;29;20062;-62
2023/07/22 03:25:16;;;;;;;7.00;3.30;;;;;;;10.27;100.00;93948.25;4913507;29;20050;-61
2023/07/22 03:27:44;;;;;;;5.57;3.03;;;;;;;10.31;100.00;93954.50;4924305;29;20044;-61
2023/07/22 03:30:16;;;;;;;7.18;3.15;;;;;;;10.29;100.00;93956.84;4938401;29;20046;-61
2023/07/22 03:32:44;;;;;;;47.53;29.83;;;;;;;10.32;100.00;93950.56;4938942;29;20056;-61
2023/07/22 03:35:11;;;;;;;12.53;6.33;;;;;;;10.35;100.00;93951.72;4938406;29;20047;-63
2023/07/22 03:37:39;;;;;;;7.70;3.80;;;;;;;10.34;100.00;93956.44;4935865;29;20047;-61
2023/07/22 03:40:11;;;;;;;6.93;3.75;;;;;;;10.31;100.00;93954.50;4933967;29;20170;-61
2023/07/22 03:42:38;;;;;;;6.78;3.08;;;;;;;10.29;100.00;93950.59;4925673;29;20048;-61
2023/07/22 03:45:06;;;;;;;7.35;2.80;;;;;;;10.27;100.00;93942.78;4938392;28;20450;-63
2023/07/22 03:47:33;;;;;;;5.30;2.60;;;;;;;10.27;100.00;93948.25;4938802;29;20048;-63
2023/07/22 03:50:00;;;;;;;6.15;2.70;;;;;;;10.28;100.00;93949.03;4938697;29;20058;-61
2023/07/22 03:52:26;;;;;;;7.60;3.13;;;;;;;10.24;100.00;93948.28;4922329;29;20047;-61
2023/07/22 03:54:53;;;;;;;6.30;2.97;;;;;;;10.24;100.00;93937.31;4929467;29;20079;-64
2023/07/22 03:57:25;;;;;;;7.30;3.00;;;;;;;10.26;100.00;93941.22;4930186;29;20685;-63
2023/07/22 03:59:53;;;;;;;6.43;2.87;;;;;;;10.22;100.00;93936.97;4938948;29;20551;-61
2023/07/22 04:02:20;;;;;;;6.82;3.08;;;;;;;10.23;100.00;93941.28;4921070;29;20125;-64
2023/07/22 04:04:46;;;;;;;6.25;2.80;;;;;;;10.24;100.00;93942.81;4936788;29;20043;-63
2023/07/22 04:07:13;;;;;;;5.90;3.00;;;;;;;10.21;100.00;93944.41;4933554;29;20047;-62
2023/07/22 04:09:40;;;;;;;5.53;2.80;;;;;;;10.27;100.00;93937.28;4937290;29;20056;-64
2023/07/22 04:12:07;;;;;;;7.97;3.07;;;;;;;10.31;100.00;93935.28;4938236;29;20044;-61
2023/07/22 04:14:34;;;;;;;5.43;2.80;;;;;;;10.13;100.00;93940.22;4938378;29;20040;-61
2023/07/22 04:17:01;;;;;;;5.70;3.10;;;;;;;10.23;100.00;93941.28;4937998;29;20053;-62
2023/07/22 04:19:28;;;;;;;5.38;3.08;;;;;;;10.30;100.00;93947.47;4930881;29;20048;-64
2023/07/22 04:21:57;;;;;;;6.38;2.80;;;;;;;10.37;100.00;93943.84;4936706;29;20074;-61
2023/07/22 04:24:25;;;;;;;6.20;2.73;;;;;;;10.46;100.00;93944.09;4923990;29;20051;-63
2023/07/22 04:26:51;;;;;;;7.90;3.08;;;;;;;10.52;100.00;93944.41;4938909;29;20114;-62
2023/07/22 04:29:18;;;;;;;6.75;2.85;;;;;;;10.56;100.00;93936.91;4941339;29;20039;-61
2023/07/22 04:31:45;;;;;;;4.50;2.88;;;;;;;10.47;100.00;93934.69;4941745;29;20063;-61
2023/07/22 04:34:12;;;;;;;5.35;2.95;;;;;;;10.26;100.00;93951.41;4927623;29;20722;-63
2023/07/22 04:36:39;;;;;;;5.60;3.30;;;;;;;9.99;100.00;93955.66;4941714;29;20110;-64
2023/07/22 04:39:07;;;;;;;6.80;4.00;;;;;;;10.13;100.00;93953.94;4932845;29;20063;-61
2023/07/22 04:41:34;;;;;;;6.88;3.80;;;;;;;10.34;100.00;93959.16;4938019;29;20508;-64
2023/07/22 04:44:00;;;;;;;5.88;3.42;;;;;;;10.55;100.00;93952.59;4934084;29;20048;-63
2023/07/22 04:46:28;;;;;;;5.82;3.20;;;;;;;10.71;100.00;93951.97;4933292;29;20054;-61
2023/07/22 04:48:55;;;;;;;5.13;3.47;;;;;;;10.79;100.00;93950.66;4922696;29;20103;-62
2023/07/22 04:51:22;;;;;;;4.95;3.22;;;;;;;10.85;100.00;93945.47;4914542;29;20062;-61
2023/07/22 04:53:49;;;;;;;5.63;3.05;;;;;;;11.03;100.00;93950.69;4928255;29;20051;-64
2023/07/22 04:56:16;;;;;;;5.85;3.08;;;;;;;10.95;100.00;93941.78;4929479;29;20051;-62
2023/07/22 04:58:43;;;;;;;6.95;3.75;;;;;;;10.96;100.00;93948.03;4941539;29;20044;-64
2023/07/22 05:01:10;;;;;;;7.27;3.83;;;;;;;11.00;100.00;93951.50;4940914;29;20462;-63
2023/07/22 05:03:37;;;;;;;6.90;3.70;;;;;;;11.13;100.00;93949.72;4942015;28;20057;-61
2023/07/22 05:06:04;;;;;;;5.78;3.65;;;;;;;11.16;100.00;93956.34;4952325;28;20162;-61
2023/07/22 05:08:31;;;;;;;7.10;3.70;;;;;;;11.11;100.00;93962.34;4930274;29;20669;-65
2023/07/22 05:10:57;;;;;;;6.30;4.10;;;;;;;10.92;100.00;93958.31;4921423;29;20048;-63
2023/07/22 05:13:24;;;;;;;6.97;3.87;;;;;;;11.06;100.00;93965.53;4927413;29;20050;-62
2023/07/22 05:15:51;;;;;;;7.75;3.70;;;;;;;11.35;100.00;93963.09;4937926;29;20048;-62
2023/07/22 05:18:17;;;;;;;7.40;4.05;;;;;;;11.47;100.00;93954.25;4940562;29;20043;-62
2023/07/22 05:20:44;;;;;;;6.43;3.72;;;;;;;11.37;100.00;93961.47;4941105;29;20043;-62
2023/07/22 05:23:11;;;;;;;9.20;4.10;;;;;;;11.48;100.00;93969.53;4940286;29;20611;-64
2023/07/22 05:25:38;;;;;;;6.73;3.80;;;;;;;11.48;100.00;93964.03;4937619;29;20043;-62
2023/07/22 05:28:05;;;;;;;7.65;3.90;;;;;;;11.43;100.00;93972.78;4935805;29;20040;-65
2023/07/22 05:30:32;;;;;;;9.32;4.57;;;;;;;11.32;100.00;93975.69;4947739;28;20386;-62
2023/07/22 05:33:02;;;;;;;7.13;4.32;;;;;;;11.53;100.00;93971.81;4944401;29;20047;-65
2023/07/22 05:35:29;;;;;;;8.93;4.32;;;;;;;11.80;100.00;93977.19;4935402;29;21679;-62
2023/07/22 05:37:55;;;;;;;7.63;4.60;;;;;;;12.03;100.00;93978.34;4933140;29;20048;-64
2023/07/22 05:40:22;;;;;;;9.02;4.70;;;;;;;12.24;100.00;93977.16;4937785;29;20409;-68
2023/07/22 05:42:49;;;;;;;7.53;4.53;;;;;;;14.16;100.00;93969.38;4940505;29;20078;-64
2023/07/22 05:45:16;;;;;;;9.95;4.80;;;;;;;15.74;100.00;93956.25;4939959;29;20057;-68
2023/07/22 05:47:43;;;;;;;7.93;4.15;;;;;;;16.70;100.00;93954.72;4932455;29;20067;-61
2023/07/22 05:50:10;;;;;;;9.70;4.67;;;;;;;17.64;100.00;93957.34;4931914;29;20052;-61
2023/07/22 05:52:37;;;;;;;7.38;4.20;;;;;;;19.06;100.00;93957.06;4931844;29;20120;-64
2023/07/22 05:55:04;;;;;;;6.97;4.15;;;;;;;20.14;95.34;93947.00;4931990;29;20056;-64
2023/07/22 05:57:31;;;;;;;6.63;3.90;;;;;;;20.85;87.54;93952.09;4932401;29;20098;-65
2023/07/22 05:59:58;;;;;;;8.73;4.22;;;;;;;21.99;80.06;93955.25;4932160;29;20052;-65
2023/07/22 06:02:35;;;;;;;6.23;4.30;;;;;;;21.92;81.40;93953.66;4943895;28;20691;-64
2023/07/22 06:05:02;;;;;;;7.40;4.25;;;;;;;23.01;73.42;93957.84;4929505;29;20040;-61
2023/07/22 06:07:28;;;;;;;5.70;3.70;;;;;;;23.99;65.70;93956.00;4931739;29;20378;-62
2023/07/22 06:09:55;;;;;;;8.55;3.97;;;;;;;23.95;66.79;93954.72;4936527;29;20064;-61
2023/07/22 06:12:22;;;;;;;6.00;3.60;;;;;;;23.60;66.10;93964.91;4937303;29;20048;-62
2023/07/22 06:14:49;;;;;;;6.93;3.67;;;;;;;23.99;65.64;93955.25;4929238;29;20052;-63
2023/07/22 06:17:17;;;;;;;6.82;3.78;;;;;;;25.50;60.22;93959.63;4939090;29;20051;-62
2023/07/22 06:19:43;;;;;;;5.97;3.60;;;;;;;26.19;54.71;93955.38;4913788;29;20044;-61
2023/07/22 06:22:10;;;;;;;7.07;4.03;;;;;;;25.96;56.36;93963.91;4935793;29;20485;-61
2023/07/22 06:24:37;;;;;;;6.32;3.75;;;;;;;26.54;53.88;93960.34;4914986;29;20067;-63
2023/07/22 06:27:04;;;;;;;6.20;3.77;;;;;;;24.81;59.11;93965.69;4930908;29;20052;-64
2023/07/22 06:29:30;;;;;;;6.32;3.70;;;;;;;25.04;57.65;93963.69;4931943;29;20050;-63
2023/07/22 06:31:57;;;;;;;6.30;4.00;;;;;;;26.15;54.96;93955.66;4931514;29;20408;-61
2023/07/22 06:34:24;;;;;;;6.15;3.53;;;;;;;27.12;51.41;93967.16;4914416;29;20350;-62
2023/07/22 06:36:51;;;;;;;6.07;3.63;;;;;;;27.35;49.23;93959.34;4931455;29;20067;-62
2023/07/22 06:39:17;;;;;;;6.00;3.60;;;;;;;26.92;51.18;93965.50;4931115;29;20414;-62
2023/07/22 06:41:44;;;;;;;7.07;3.75;;;;;;;27.58;49.44;93962.72;4931370;29;20444;-64
2023/07/22 06:44:11;;;;;;;5.50;3.22;;;;;;;28.84;45.94;93967.97;4931037;29;20052;-62
2023/07/22 06:46:37;;;;;;;7.15;3.30;;;;;;;28.12;46.54;93973.22;4931557;29;20091;-62
2023/07/22 06:49:04;;;;;;;5.43;3.10;;;;;;;26.95;48.95;93973.69;4930662;29;20054;-62
2023/07/22 06:51:31;;;;;;;6.00;3.43;;;;;;;26.61;50.37;93973.88;4931404;29;20121;-64
2023/07/22 06:53:58;;;;;;;4.60;3.10;;;;;;;27.93;48.95;93970.34;4931485;29;20048;-63
2023/07/22 06:56:26;;;;;;;6.47;3.50;;;;;;;29.44;45.52;93960.41;4930824;29;20047;-62
2023/07/22 06:58:52;;;;;;;4.22;2.90;;;;;;;30.36;40.91;93959.00;4931287;29;20062;-63
2023/07/22 07:01:19;;;;;;;4.78;2.90;;;;;;;28.48;44.64;93973.03;4914073;29;20047;-62
2023/07/22 07:03:46;;;;;;;6.10;2.80;;;;;;;26.36;49.60;93972.19;4931113;29;20456;-62
2023/07/22 07:06:13;;;;;;;5.60;2.88;;;;;;;28.23;45.32;93973.09;4909259;29;20055;-62
2023/07/22 07:08:40;;;;;;;4.18;2.65;;;;;;;27.99;44.64;93976.69;4929225;29;20047;-66
2023/07/22 07:11:07;;;;;;;3.83;2.25;;;;;;;30.14;41.68;93960.19;4922314;29;20043;-64
2023/07/22 07:13:33;;;;;;;3.55;2.20;;;;;;;31.25;37.45;93963.31;4950351;29;20043;-63
2023/07/22 07:16:22;;;;;;;4.13;2.40;;;;;;;30.67;36.93;93963.00;4949787;29;20558;-62
2023/07/22 07:18:49;;;;;;;4.60;2.22;;;;;;;30.61;35.20;93962.38;4949183;29;20620;-62
2023/07/22 07:21:16;;;;;;;3.20;2.10;;;;;;;28.03;39.25;93967.91;4949972;29;20039;-62
2023/07/22 07:23:43;;;;;;;4.50;1.80;;;;;;;30.24;35.41;93958.47;4951503;28;20507;-67
2023/07/22 07:26:10;;;;;;;4.18;2.10;;;;;;;29.50;36.43;93965.94;4967727;28;20047;-62
2023/07/22 07:28:37;;;;;;;3.30;2.00;;;;;;;31.83;32.87;93964.97;4969597;28;20076;-65
2023/07/22 07:31:04;;;;;;;2.72;1.85;;;;;;;32.87;30.50;93958.78;4968842;28;20047;-63
2023/07/22 07:33:31;;;;;;;3.00;1.60;;;;;;;34.01;29.55;93954.66;4969508;28;20077;-62
2023/07/22 07:35:57;;;;;;;3.05;1.60;;;;;;;34.25;28.73;93964.72;4968988;28;20150;-62
2023/07/22 07:38:24;;;;;;;2.65;1.60;;;;;;;34.58;26.68;93959.13;4968924;28;20059;-63
2023/07/22 07:40:56;;;;;;;2.97;1.60;;;;;;;32.06;29.19;93958.75;4968916;28;20055;-62
2023/07/22 07:43:24;;;;;;;2.85;1.55;;;;;;;32.25;27.66;93964.91;4968661;28;20992;-62
2023/07/22 07:45:50;;;;;;;3.00;1.65;;;;;;;32.56;27.02;93956.59;4968829;28;20394;-63
2023/07/22 07:48:17;;;;;;;4.78;1.73;;;;;;;34.07;25.99;93957.28;4968798;28;20046;-63
2023/07/22 07:50:44;;;;;;;2.83;1.60;;;;;;;33.25;26.71;93964.63;4969311;28;20034;-69
2023/07/22 07:53:11;;;;;;;2.80;1.50;;;;;;;33.29;24.80;93958.56;4968863;28;20112;-63
2023/07/22 07:55:37;;;;;;;2.42;1.50;;;;;;;30.98;28.12;93962.63;4972526;28;20042;-62
2023/07/22 07:58:04;;;;;;;3.05;1.63;;;;;;;30.65;28.50;93971.28;4972540;28;20055;-63
2023/07/22 08:00:31;;;;;;;2.53;1.60;;;;;;;32.64;26.92;93963.06;4972914;28;20038;-65
2023/07/22 08:02:58;;;;;;;3.00;1.63;;;;;;;32.79;26.20;93955.91;4972527;28;20043;-63
2023/07/22 08:05:24;;;;;;;3.30;1.70;;;;;;;31.69;26.76;93968.44;4972239;28;20055;-62
2023/07/22 08:07:51;;;;;;;3.45;1.70;;;;;;;32.34;26.74;93966.47;4972669;28;20411;-65
2023/07/22 08:10:18;;;;;;;4.10;1.50;;;;;;;32.48;25.78;93969.19;4954836;28;20064;-62
2023/07/22 08:12:44;;;;;;;3.00;1.70;;;;;;;29.13;29.29;93968.34;4972609;28;20043;-63
2023/07/22 08:15:12;;;;;;;3.20;1.85;;;;;;;30.33;28.14;93959.38;4972359;28;20050;-63
2023/07/22 08:17:38;;;;;;;3.23;1.80;;;;;;;31.30;26.83;93962.41;4969223;28;20396;-63
2023/07/22 08:20:07;;;;;;;3.58;1.80;;;;;;;31.52;26.29;93957.53;4940361;29;20040;-66
2023/07/22 08:22:33;;;;;;;3.03;1.50;;;;;;;28.98;29.16;93968.03;4939677;29;20378;-65
2023/07/22 08:25:00;;;;;;;3.53;1.52;;;;;;;31.22;28.06;93961.56;4947986;28;20055;-64
2023/07/22 08:27:27;;;;;;;2.67;1.48;;;;;;;32.48;26.05;93960.66;4932857;29;20039;-63
2023/07/22 08:29:54;;;;;;;2.57;1.50;;;;;;;33.27;25.49;93958.38;4941183;29;20471;-66
2023/07/22 08:32:21;;;;;;;2.92;1.58;;;;;;;34.11;24.22;93958.44;4934795;29;20050;-64
2023/07/22 08:34:47;;;;;;;3.63;1.73;;;;;;;35.30;23.09;93959.81;4917087;29;20051;-63
2023/07/22 08:37:14;;;;;;;3.00;1.60;;;;;;;36.62;21.84;93954.53;4935869;29;20408;-66
2023/07/22 08:39:41;;;;;;;2.30;1.40;;;;;;;33.34;24.94;93955.53;4940749;29;20040;-63
2023/07/22 08:42:09;;;;;;;2.93;1.60;;;;;;;33.97;23.95;93954.28;4929186;29;20105;-63
2023/07/22 08:44:37;;;;;;;2.60;1.60;;;;;;;32.48;25.39;93952.16;4941777;28;20051;-63
2023/07/22 08:47:10;;;;;;;2.50;1.60;;;;;;;29.51;29.67;93954.09;4941299;29;20051;-64
2023/07/22 08:49:36;;;;;;;4.43;1.80;;;;;;;28.47;30.94;93957.38;4938363;29;20532;-62
2023/07/22 08:52:03;;;;;;;2.95;1.65;;;;;;;28.31;31.00;93958.38;4936870;29;20137;-62
2023/07/22 08:54:31;;;;;;;3.30;1.70;;;;;;;27.57;32.44;93961.97;4940856;29;20605;-62
2023/07/22 08:56:58;;;;;;;3.67;1.90;;;;;;;28.23;32.70;93963.84;4940742;29;20051;-64
2023/07/22 08:59:25;;;;;;;4.40;1.88;;;;;;;25.33;35.81;93959.63;4936793;29;20042;-63
2023/07/22 09:01:52;;;;;;;3.60;1.92;;;;;;;24.96;36.96;93963.44;4938815;29;20058;-64
2023/07/22 09:04:20;;;;;;;3.30;1.80;;;;;;;26.27;35.06;93962.75;4961675;28;20484;-62
2023/07/22 09:06:47;;;;;;;3.23;2.00;;;;;;;26.86;34.21;93963.50;4938337;29;20518;-62
2023/07/22 09:09:15;;;;;;;3.83;2.05;;;;;;;27.30;34.18;93964.47;4936247;29;20047;-63
2023/07/22 09:11:42;;;;;;;3.28;2.00;;;;;;;27.28;34.31;93960.66;4939572;29;20055;-62
2023/07/22 09:14:10;;;;;;;4.32;1.95;;;;;;;24.64;38.40;93949.59;4932995;29;20401;-62
2023/07/22 09:16:45;;;;;;;3.22;1.92;;;;;;;24.80;38.96;93952.94;4933381;29;20158;-63
2023/07/22 09:19:13;;;;;;;3.33;1.93;;;;;;;24.61;38.37;93956.25;4919283;29;20051;-65
2023/07/22 09:21:39;;;;;;;3.70;2.05;;;;;;;25.08;37.78;93962.16;4919665;29;20051;-62
2023/07/22 09:24:24;;;;;;;4.70;1.90;;;;;;;27.73;33.02;93957.44;4940089;29;20040;-65
2023/07/22 09:26:51;;;;;;;3.53;1.80;;;;;;;27.41;33.47;93958.00;4940404;29;20047;-62
2023/07/22 09:29:32;;;;;;;3.97;1.83;;;;;;;26.79;34.41;93957.66;4940281;29;20386;-62
2023/07/22 09:31:58;;;;;;;3.03;1.80;;;;;;;26.89;35.12;93951.19;4932595;29;20054;-62
2023/07/22 09:34:27;;;;;;;3.10;1.90;;;;;;;29.16;30.89;93949.56;4933297;29;20421;-63
2023/07/22 09:37:03;;;;;;;3.35;2.20;;;;;;;28.05;33.17;93949.19;4936810;29;20059;-62
2023/07/22 09:39:30;;;;;;;3.40;2.00;;;;;;;28.57;32.41;93943.69;4950901;29;20404;-64
2023/07/22 09:41:58;;;;;;;3.83;2.05;;;;;;;27.78;33.60;93942.50;4916005;29;20056;-62
2023/07/22 09:44:37;;;;;;;3.10;1.93;;;;;;;26.95;34.93;93947.59;4928195;29;20051;-62
2023/07/22 09:47:08;;;;;;;3.30;1.83;;;;;;;26.75;34.56;93945.91;4932254;29;20433;-62
2023/07/22 09:49:40;;;;;;;4.07;1.92;;;;;;;25.68;37.54;93947.84;4943765;28;21024;-62
2023/07/22 09:52:12;;;;;;;3.78;1.90;;;;;;;27.05;34.48;93945.97;4939495;29;20042;-62
2023/07/22 09:54:47;;;;;;;2.60;1.70;;;;;;;29.26;30.57;93937.31;4937146;29;20457;-63
2023/07/22 09:57:14;;;;;;;3.27;1.70;;;;;;;30.57;28.77;93927.97;4934478;29;20426;-63
2023/07/22 09:59:41;;;;;;;3.25;1.80;;;;;;;29.09;30.29;93933.94;4938632;29;20143;-62
2023/07/22 10:02:11;;;;;;;3.47;2.00;;;;;;;27.79;32.56;93943.28;4943934;29;20058;-62
2023/07/22 10:04:39;;;;;;;3.72;1.80;;;;;;;25.63;34.45;93942.97;4938325;29;20077;-64
2023/07/22 10:07:08;;;;;;;3.65;1.90;;;;;;;25.37;34.67;93940.47;4938838;29;20054;-65
2023/07/22 10:09:37;;;;;;;3.63;1.80;;;;;;;24.52;35.31;93939.63;4939872;29;20324;-63
2023/07/22 10:12:05;;;;;;;3.22;1.70;;;;;;;23.90;37.80;93940.19;4921683;29;20077;-65
2023/07/22 10:14:32;;;;;;;3.22;2.00;;;;;;;24.95;36.70;93944.28;4935536;29;20051;-64
2023/07/22 10:17:03;;;;;;;3.58;1.90;;;;;;;25.06;36.64;93939.44;4934500;29;20519;-62
2023/07/22 10:19:31;;;;;;;3.67;1.80;;;;;;;26.80;34.53;93936.66;4916046;29;20607;-64
2023/07/22 10:21:58;;;;;;;4.83;1.77;;;;;;;26.54;34.00;93934.22;4914076;29;20059;-65
2023/07/22 10:24:27;;;;;;;3.50;1.90;;;;;;;26.40;33.62;93927.66;4938983;29;20474;-65
2023/07/22 10:26:54;;;;;;;3.03;1.80;;;;;;;25.45;35.35;93932.28;4943566;29;20047;-66
2023/07/22 10:29:21;;;;;;;4.25;2.00;;;;;;;25.73;35.52;93937.09;4931280;29;20420;-61
2023/07/22 10:31:52;;;;;;;4.78;1.83;;;;;;;25.19;36.18;93944.53;4930951;29;20046;-62
2023/07/22 10:34:26;;;;;;;3.87;1.70;;;;;;;24.96;36.31;93949.38;4930599;29;20070;-62
2023/07/22 10:36:57;;;;;;;3.63;1.77;;;;;;;24.04;37.64;93949.63;4931031;29;20047;-62
2023/07/22 10:39:28;;;;;;;3.35;2.10;;;;;;;24.61;37.03;93942.22;4930946;29;20199;-61
2023/07/22 10:42:05;;;;;;;3.67;1.90;;;;;;;26.85;34.57;93939.44;4930995;29;20118;-67
2023/07/22 10:44:35;;;;;;;3.42;1.90;;;;;;;26.63;34.66;93936.78;4930369;29;20067;-62
2023/07/22 10:47:03;;;;;;;3.50;2.00;;;;;;;25.70;35.29;93938.91;4938844;29;20047;-62
2023/07/22 10:49:45;;;;;;;3.80;2.10;;;;;;;26.29;36.04;93931.28;4930255;29;21639;-61
2023/07/22 10:52:13;;;;;;;4.45;1.90;;;;;;;26.23;34.91;93924.94;4946485;29;20408;-65
2023/07/22 10:54:40;;;;;;;3.45;2.00;;;;;;;25.83;35.86;93925.03;4931052;29;20051;-62
2023/07/22 10:57:16;;;;;;;3.08;1.90;;;;;;;26.26;34.58;93912.66;4941027;29;20448;-62
2023/07/22 10:59:52;;;;;;;3.47;1.90;;;;;;;26.46;35.84;93917.91;4938880;29;20697;-63
2023/07/22 11:02:29;;;;;;;3.63;1.90;;;;;;;27.62;33.43;93918.09;4938162;29;20412;-64
2023/07/22 11:05:02;;;;;;;4.13;1.92;;;;;;;26.78;34.68;93913.91;4920863;29;20043;-64
2023/07/22 11:07:45;;;;;;;3.28;1.98;;;;;;;26.63;34.42;93912.19;4933313;29;20047;-62
2023/07/22 11:10:16;;;;;;;3.45;1.90;;;;;;;26.18;35.11;93912.44;4933192;29;20051;-61
2023/07/22 11:12:45;;;;;;;3.10;1.87;;;;;;;26.42;33.76;93900.53;4936824;29;20048;-61
2023/07/22 11:15:16;;;;;;;3.30;1.98;;;;;;;26.76;33.14;93894.69;4938048;29;20055;-63
2023/07/22 11:17:43;;;;;;;3.92;2.00;;;;;;;26.52;33.37;93898.16;4935967;29;20065;-64
2023/07/22 11:20:10;;;;;;;3.30;2.00;;;;;;;26.12;33.73;93892.00;4912339;29;20062;-61
2023/07/22 11:22:40;;;;;;;3.70;2.15;;;;;;;26.81;34.55;93884.72;4927650;29;20048;-62
2023/07/22 11:25:08;;;;;;;4.53;2.10;;;;;;;26.34;35.55;93887.53;4938214;29;20059;-64
2023/07/22 11:27:36;;;;;;;3.78;2.10;;;;;;;25.65;36.11;93883.44;4934869;29;20031;-62
2023/07/22 11:30:03;;;;;;;3.53;2.28;;;;;;;25.05;36.19;93886.59;4937036;28;20171;-63
2023/07/22 11:32:32;;;;;;;4.40;2.00;;;;;;;24.78;36.13;93890.94;4948575;29;20046;-62